Station History

Weather Underground - logo

Station Historical Data
Daily Summary for February 1, 2018 Units:  Metric    English   Both
« Previous Day
Next Day »
Daily Weekly Monthly Yearly Custom
  High: Low: Average:
Temperature: 20.3 °C 4.8 °C 11.8 °C
Dew Point: 11.7 °C 4 °C 8.3 °C
Humidity: 96 % 54 % 81 %
Wind Speed: 5.6 km/h 0 km/h 0.5 km/h
Wind Gust: 5.6 km/h - -
Wind:- - WSW
Pressure: 1021.6 hPa 1018.2 hPa -
Precipitation: 0 mm    
Historical Graphs
 
 
Tabular Data for February 1, 2018
Time Temperature Dew Point Pressure Wind Wind Speed Wind Gust Humidity Rainfall Rate (Hourly)
00:00 7.4 °C 6.2 °C 1019.2 hPa Calm     92 % 0 mm
00:05 7.3 °C 6.1 °C 1019.2 hPa Calm     92 % 0 mm
00:10 7.3 °C 6.1 °C 1019.2 hPa Calm     92 % 0 mm
00:15 7.4 °C 6.2 °C 1019.2 hPa Calm     92 % 0 mm
00:20 7.4 °C 6.2 °C 1018.8 hPa Calm     92 % 0 mm
00:25 7.3 °C 6.1 °C 1019.2 hPa Calm     92 % 0 mm
00:30 7.2 °C 6 °C 1019.2 hPa Calm     92 % 0 mm
00:35 7.1 °C 5.9 °C 1019.2 hPa Calm     92 % 0 mm
00:41 7.1 °C 5.8 °C 1018.8 hPa Calm     92 % 0 mm
00:46 6.9 °C 5.7 °C 1018.8 hPa Calm     92 % 0 mm
00:51 6.9 °C 5.7 °C 1018.8 hPa Calm     92 % 0 mm
00:53 6.8 °C 5.6 °C 1018.8 hPa Calm     92 % 0 mm
00:58 6.8 °C 5.6 °C 1018.8 hPa Calm     92 % 0 mm
01:03 6.7 °C 5.5 °C 1018.8 hPa Calm     92 % 0 mm
01:08 6.7 °C 5.4 °C 1018.8 hPa Calm     92 % 0 mm
01:13 6.6 °C 5.4 °C 1018.8 hPa Calm     92 % 0 mm
01:18 6.6 °C 5.3 °C 1018.8 hPa Calm     92 % 0 mm
01:24 6.6 °C 5.6 °C 1018.8 hPa Calm     93 % 0 mm
01:29 6.6 °C 5.5 °C 1018.8 hPa Calm     93 % 0 mm
01:34 6.4 °C 5.4 °C 1019.2 hPa Calm     93 % 0 mm
01:39 6.5 °C 5.4 °C 1019.2 hPa Calm     93 % 0 mm
01:44 6.6 °C 5.7 °C 1019.2 hPa Calm     94 % 0 mm
01:49 6.6 °C 5.7 °C 1019.2 hPa Calm     94 % 0 mm
01:54 6.6 °C 5.7 °C 1019.2 hPa Calm     94 % 0 mm
01:59 6.6 °C 5.7 °C 1019.5 hPa Calm     94 % 0 mm
02:04 6.6 °C 5.7 °C 1019.2 hPa Calm     94 % 0 mm
02:09 6.7 °C 5.8 °C 1019.5 hPa Calm     94 % 0 mm
02:14 6.6 °C 5.7 °C 1019.5 hPa Calm     94 % 0 mm
02:19 6.6 °C 5.7 °C 1019.2 hPa Calm     94 % 0 mm
02:24 6.5 °C 5.6 °C 1019.5 hPa Calm     94 % 0 mm
02:29 6.4 °C 5.6 °C 1019.2 hPa Calm     94 % 0 mm
02:34 6.4 °C 5.5 °C 1019.5 hPa Calm     94 % 0 mm
02:39 6.4 °C 5.6 °C 1019.2 hPa Calm     94 % 0 mm
02:44 6.4 °C 5.5 °C 1019.5 hPa Calm     94 % 0 mm
02:49 6.3 °C 5.4 °C 1019.5 hPa Calm     94 % 0 mm
02:54 6.4 °C 5.5 °C 1019.5 hPa Calm     94 % 0 mm
02:59 6.3 °C 5.4 °C 1019.2 hPa Calm     94 % 0 mm
03:04 6.6 °C 5.8 °C 1019.2 hPa Calm     95 % 0 mm
03:09 6.6 °C 5.8 °C 1019.2 hPa Calm     95 % 0 mm
03:14 6.6 °C 5.8 °C 1019.2 hPa Calm     95 % 0 mm
03:19 6.6 °C 5.8 °C 1019.2 hPa Calm     95 % 0 mm
03:24 6.6 °C 5.9 °C 1019.2 hPa Calm     95 % 0 mm
03:29 6.6 °C 5.9 °C 1019.2 hPa Calm     95 % 0 mm
03:34 6.6 °C 5.9 °C 1019.2 hPa Calm     95 % 0 mm
03:39 6.7 °C 5.9 °C 1019.2 hPa Calm     95 % 0 mm
03:44 6.7 °C 6 °C 1018.8 hPa Calm     95 % 0 mm
03:49 6.8 °C 6.1 °C 1018.8 hPa Calm     95 % 0 mm
03:54 6.8 °C 6.1 °C 1018.8 hPa Calm     95 % 0 mm
03:59 6.7 °C 5.9 °C 1018.8 hPa Calm     95 % 0 mm
04:04 6.6 °C 5.9 °C 1018.8 hPa Calm     95 % 0 mm
04:09 6.4 °C 5.5 °C 1018.8 hPa Calm     94 % 0 mm
04:14 6.2 °C 5.3 °C 1018.8 hPa Calm     94 % 0 mm
04:19 6.1 °C 5.2 °C 1018.8 hPa Calm     94 % 0 mm
04:24 6 °C 5.1 °C 1018.8 hPa Calm     94 % 0 mm
04:30 5.9 °C 5.1 °C 1018.8 hPa Calm     94 % 0 mm
04:35 5.9 °C 5 °C 1018.8 hPa Calm     94 % 0 mm
04:40 5.8 °C 4.9 °C 1018.8 hPa Calm     94 % 0 mm
04:45 5.7 °C 4.8 °C 1018.8 hPa Calm     94 % 0 mm
04:50 5.7 °C 4.8 °C 1018.8 hPa Calm     94 % 0 mm
04:55 5.7 °C 4.8 °C 1018.8 hPa Calm     94 % 0 mm
05:00 5.6 °C 4.7 °C 1018.8 hPa Calm     94 % 0 mm
05:05 5.5 °C 4.6 °C 1019.2 hPa Calm     94 % 0 mm
05:10 5.5 °C 4.6 °C 1019.2 hPa Calm     94 % 0 mm
05:15 5.5 °C 4.6 °C 1018.8 hPa Calm     94 % 0 mm
05:20 5.4 °C 4.6 °C 1019.2 hPa Calm     94 % 0 mm
05:25 5.4 °C 4.5 °C 1018.8 hPa Calm     94 % 0 mm
05:30 5.5 °C 4.8 °C 1018.8 hPa Calm     95 % 0 mm
05:35 5.7 °C 4.9 °C 1019.2 hPa Calm     95 % 0 mm
05:40 5.5 °C 4.6 °C 1019.2 hPa Calm     94 % 0 mm
05:45 5.3 °C 4.4 °C 1019.2 hPa Calm     94 % 0 mm
05:50 5.2 °C 4.3 °C 1019.2 hPa Calm     94 % 0 mm
05:55 5.2 °C 4.3 °C 1019.2 hPa Calm     94 % 0 mm
06:00 5.1 °C 4.2 °C 1019.2 hPa Calm     94 % 0 mm
06:05 5 °C 4.1 °C 1019.2 hPa Calm     94 % 0 mm
06:10 4.9 °C 4.1 °C 1019.5 hPa Calm     94 % 0 mm
06:15 5 °C 4.1 °C 1019.2 hPa Calm     94 % 0 mm
06:20 4.9 °C 4.1 °C 1019.5 hPa Calm     94 % 0 mm
06:25 4.9 °C 4 °C 1019.5 hPa Calm     94 % 0 mm
06:30 5.1 °C 4.3 °C 1019.5 hPa Calm     95 % 0 mm
06:35 5 °C 4.3 °C 1019.5 hPa Calm     95 % 0 mm
06:40 4.9 °C 4.2 °C 1019.5 hPa Calm     95 % 0 mm
06:45 4.9 °C 4.2 °C 1019.5 hPa Calm     95 % 0 mm
06:50 4.8 °C 4.1 °C 1019.5 hPa Calm     95 % 0 mm
06:55 4.8 °C 4.1 °C 1019.5 hPa Calm     95 % 0 mm
07:00 4.8 °C 4.1 °C 1019.5 hPa Calm     95 % 0 mm
07:05 4.9 °C 4.2 °C 1019.5 hPa Calm     95 % 0 mm
07:10 4.9 °C 4.2 °C 1019.9 hPa Calm     95 % 0 mm
07:15 5 °C 4.3 °C 1019.9 hPa Calm     95 % 0 mm
07:20 5.2 °C 4.5 °C 1019.9 hPa Calm     95 % 0 mm
07:25 5.4 °C 4.8 °C 1019.9 hPa Calm     96 % 0 mm
07:30 5.4 °C 4.8 °C 1019.9 hPa Calm     96 % 0 mm
07:35 5.7 °C 5.1 °C 1019.9 hPa Calm     96 % 0 mm
07:40 5.8 °C 5.2 °C 1019.9 hPa Calm     96 % 0 mm
07:45 6 °C 5.4 °C 1019.9 hPa Calm     96 % 0 mm
07:50 6.2 °C 5.6 °C 1019.9 hPa Calm     96 % 0 mm
07:55 6.4 °C 5.8 °C 1019.9 hPa Calm     96 % 0 mm
08:00 6.6 °C 5.9 °C 1020.2 hPa Calm     96 % 0 mm
08:05 6.8 °C 6.2 °C 1020.2 hPa Calm     96 % 0 mm
08:10 7.3 °C 6.7 °C 1020.2 hPa Calm     96 % 0 mm
08:15 7.5 °C 6.9 °C 1020.5 hPa Calm     96 % 0 mm
08:20 7.8 °C 7.2 °C 1020.5 hPa Calm     96 % 0 mm
08:25 8.2 °C 7.6 °C 1020.5 hPa Calm     96 % 0 mm
08:30 8.6 °C 8 °C 1020.5 hPa Calm     96 % 0 mm
08:35 9 °C 8.4 °C 1020.9 hPa Calm     96 % 0 mm
08:40 9.3 °C 8.7 °C 1020.9 hPa Calm     96 % 0 mm
08:45 9.8 °C 9.2 °C 1020.9 hPa Calm     96 % 0 mm
08:50 10.1 °C 9.3 °C 1020.9 hPa Calm     95 % 0 mm
08:55 10.6 °C 9.4 °C 1021.2 hPa Calm     93 % 0 mm
09:00 10.9 °C 9.6 °C 1021.2 hPa Calm     91 % 0 mm
09:06 11.5 °C 9.9 °C 1021.2 hPa SSE 1.9 km/h   90 % 0 mm
09:11 12 °C 9.9 °C 1021.2 hPa SSE 3.7 km/h 3.7 km/h 87 % 0 mm
09:16 12.2 °C 9.9 °C 1021.2 hPa Calm     86 % 0 mm
09:21 12.5 °C 10.1 °C 1021.2 hPa Calm     85 % 0 mm
09:26 12.8 °C 10 °C 1021.2 hPa Calm     83 % 0 mm
09:31 12.8 °C 9.7 °C 1021.6 hPa NW 3.7 km/h 3.7 km/h 81 % 0 mm
09:36 12.9 °C 9.9 °C 1021.2 hPa Calm     82 % 0 mm
09:41 13.2 °C 10 °C 1021.6 hPa Calm     81 % 0 mm
09:46 13.4 °C 9.8 °C 1021.2 hPa Calm   0.2 km/h 79 % 0 mm
09:51 13.3 °C 9.5 °C 1021.2 hPa NW 1.9 km/h   78 % 0 mm
09:56 13.3 °C 9.6 °C 1021.2 hPa Calm     78 % 0 mm
10:01 13.7 °C 10.2 °C 1021.2 hPa West 1.9 km/h 1.9 km/h 79 % 0 mm
10:06 14.1 °C 10.1 °C 1021.2 hPa Calm     77 % 0 mm
10:11 14.4 °C 9.9 °C 1021.2 hPa Calm     74 % 0 mm
10:16 14.7 °C 10.5 °C 1021.2 hPa South 1.9 km/h   76 % 0 mm
10:21 15.1 °C 10.4 °C 1021.2 hPa SE 1.9 km/h 1.9 km/h 74 % 0 mm
10:26 15.5 °C 10.7 °C 1021.2 hPa Calm     73 % 0 mm
10:31 15.9 °C 10.6 °C 1020.9 hPa Calm     71 % 0 mm
10:36 16.2 °C 10.9 °C 1020.9 hPa Calm     71 % 0 mm
10:41 16.3 °C 10.3 °C 1020.9 hPa Calm     68 % 0 mm
10:46 16.2 °C 10.7 °C 1020.9 hPa Calm     70 % 0 mm
10:51 16.6 °C 10.9 °C 1020.9 hPa SW 1.6 km/h   69 % 0 mm
10:56 16.9 °C 10.7 °C 1020.9 hPa Calm   0.2 km/h 67 % 0 mm
11:01 16.8 °C 10.4 °C 1020.5 hPa Calm     66 % 0 mm
11:06 17 °C 11.3 °C 1020.5 hPa Calm     69 % 0 mm
11:11 17.5 °C 11.1 °C 1020.5 hPa SSW 5.6 km/h 5.6 km/h 66 % 0 mm
11:16 17.8 °C 10.9 °C 1020.5 hPa ENE 3.7 km/h 3.7 km/h 64 % 0 mm
11:21 17.9 °C 11 °C 1020.2 hPa Calm     64 % 0 mm
11:26 18 °C 11.1 °C 1020.2 hPa SE 1.9 km/h   64 % 0 mm
11:31 18 °C 11.3 °C 1020.2 hPa WNW 1.9 km/h 1.9 km/h 65 % 0 mm
11:36 18.1 °C 10.9 °C 1020.2 hPa NW 3.2 km/h 3.2 km/h 63 % 0 mm
11:41 18 °C 11.1 °C 1020.2 hPa NNW 1.9 km/h 1.9 km/h 64 % 0 mm
11:46 18.3 °C 11.6 °C 1019.9 hPa NW 1.9 km/h 1.9 km/h 65 % 0 mm
11:51 18.2 °C 11.3 °C 1019.9 hPa West 1.9 km/h 1.9 km/h 64 % 0 mm
11:56 18.3 °C 11.3 °C 1019.9 hPa ESE 1.9 km/h 1.9 km/h 64 % 0 mm
12:01 18.4 °C 11.3 °C 1019.9 hPa Calm     63 % 0 mm
12:06 18.6 °C 11.4 °C 1019.5 hPa East 3.7 km/h 3.7 km/h 63 % 0 mm
12:11 18.7 °C 11.5 °C 1019.5 hPa ESE 1.9 km/h   63 % 0 mm
12:16 18.9 °C 11.2 °C 1019.5 hPa NW 1.9 km/h   61 % 0 mm
12:21 18.6 °C 11.2 °C 1019.5 hPa NW 1.9 km/h 1.9 km/h 62 % 0 mm
12:26 18.7 °C 11.3 °C 1019.2 hPa Calm     62 % 0 mm
12:31 19 °C 11.3 °C 1019.2 hPa ESE 1.9 km/h 1.9 km/h 61 % 0 mm
12:36 18.9 °C 11 °C 1019.2 hPa Calm     60 % 0 mm
12:41 18.9 °C 10.9 °C 1019.2 hPa Calm     60 % 0 mm
12:46 18.8 °C 11.6 °C 1018.8 hPa SE 1.9 km/h 1.9 km/h 63 % 0 mm
12:51 19.1 °C 11.2 °C 1019.2 hPa NW 3.7 km/h 3.7 km/h 60 % 0 mm
12:56 19.4 °C 11.7 °C 1018.8 hPa Calm     61 % 0 mm
13:01 19.6 °C 10.8 °C 1018.8 hPa WNW 3.7 km/h 3.7 km/h 57 % 0 mm
13:06 19.5 °C 10.8 °C 1018.8 hPa Calm     57 % 0 mm
13:11 19.6 °C 11.3 °C 1018.8 hPa NNW 3.7 km/h 3.7 km/h 59 % 0 mm
13:16 19.6 °C 11.1 °C 1018.8 hPa WNW 1.9 km/h 1.9 km/h 58 % 0 mm
13:21 19.7 °C 10.9 °C 1018.8 hPa NW 1.9 km/h 1.9 km/h 57 % 0 mm
13:26 19.8 °C 10.8 °C 1018.8 hPa West 3.7 km/h 3.7 km/h 56 % 0 mm
13:31 19.9 °C 10.3 °C 1018.8 hPa NNE 1.9 km/h   54 % 0 mm
13:36 19.9 °C 10.6 °C 1018.8 hPa WNW 1.9 km/h   55 % 0 mm
13:41 20.1 °C 10.7 °C 1018.5 hPa NW 1.9 km/h 1.9 km/h 55 % 0 mm
13:46 20 °C 10.7 °C 1018.5 hPa SW 1.9 km/h 1.9 km/h 55 % 0 mm
13:51 19.9 °C 10.6 °C 1018.5 hPa Calm     55 % 0 mm
13:56 20.1 °C 11 °C 1018.5 hPa NW 1.9 km/h 1.9 km/h 56 % 0 mm
14:01 20.1 °C 10.7 °C 1018.5 hPa NW 3.7 km/h 3.7 km/h 55 % 0 mm
14:06 20 °C 10.4 °C 1018.5 hPa Calm     54 % 0 mm
14:11 20.1 °C 10.7 °C 1018.5 hPa West 1.9 km/h 1.9 km/h 55 % 0 mm
14:16 20.1 °C 10.5 °C 1018.5 hPa West 3.7 km/h 3.7 km/h 54 % 0 mm
14:21 20.2 °C 10.6 °C 1018.5 hPa SE 1.9 km/h 1.9 km/h 54 % 0 mm
14:46 20.3 °C 10.9 °C 1018.5 hPa WNW 3.7 km/h 3.7 km/h 55 % 0 mm
14:51 20.2 °C 10.8 °C 1018.5 hPa NNW 1.9 km/h 1.9 km/h 55 % 0 mm
14:56 20.2 °C 11.4 °C 1018.5 hPa North 3.7 km/h 3.7 km/h 57 % 0 mm
15:01 20.1 °C 11.3 °C 1018.5 hPa NW 3.7 km/h 3.7 km/h 57 % 0 mm
15:06 20.1 °C 11.3 °C 1018.5 hPa WNW 1.6 km/h   57 % 0 mm
15:11 20.1 °C 11.3 °C 1018.5 hPa Calm     57 % 0 mm
15:16 20.1 °C 11.3 °C 1018.5 hPa NW 1.9 km/h   57 % 0 mm
15:21 19.9 °C 10.9 °C 1018.5 hPa Calm     56 % 0 mm
15:26 19.9 °C 11.1 °C 1018.5 hPa West 1.9 km/h   57 % 0 mm
15:31 19.8 °C 11.3 °C 1018.5 hPa NW 1.9 km/h 1.9 km/h 58 % 0 mm
15:36 19.8 °C 11 °C 1018.2 hPa WNW 1.9 km/h   57 % 0 mm
15:41 19.7 °C 10.9 °C 1018.5 hPa Calm     57 % 0 mm
15:46 19.7 °C 11.5 °C 1018.5 hPa Calm     59 % 0 mm
15:51 19.7 °C 11.2 °C 1018.5 hPa WNW 1.6 km/h 1.6 km/h 58 % 0 mm
15:56 19.6 °C 11.1 °C 1018.5 hPa Calm     58 % 0 mm
16:01 19.5 °C 11.3 °C 1018.5 hPa Calm     59 % 0 mm
16:06 19.5 °C 11 °C 1018.5 hPa NW 1.9 km/h   58 % 0 mm
16:11 19.4 °C 11.2 °C 1018.5 hPa NNW 1.9 km/h   59 % 0 mm
16:16 19.4 °C 10.9 °C 1018.5 hPa Calm     58 % 0 mm
16:21 19.3 °C 11.1 °C 1018.5 hPa Calm     59 % 0 mm
16:26 19.3 °C 11.3 °C 1018.5 hPa Calm     60 % 0 mm
16:31 19.2 °C 11.2 °C 1018.5 hPa Calm     60 % 0 mm
16:36 19 °C 11.3 °C 1018.5 hPa Calm     61 % 0 mm
16:41 18.9 °C 11 °C 1018.5 hPa Calm     60 % 0 mm
16:46 18.7 °C 11.1 °C 1018.5 hPa Calm     61 % 0 mm
16:51 18.4 °C 10.8 °C 1018.5 hPa Calm     61 % 0 mm
16:56 18.2 °C 10.8 °C 1018.5 hPa Calm     62 % 0 mm
17:01 18 °C 10.6 °C 1018.8 hPa Calm     62 % 0 mm
17:06 17.8 °C 10.7 °C 1018.8 hPa Calm     63 % 0 mm
17:11 17.6 °C 10.5 °C 1018.8 hPa Calm     63 % 0 mm
17:16 17.5 °C 10.4 °C 1018.8 hPa Calm     63 % 0 mm
17:21 17.3 °C 10.4 °C 1018.8 hPa Calm     64 % 0 mm
17:26 17 °C 10.4 °C 1018.8 hPa Calm     65 % 0 mm
17:31 16.7 °C 10.3 °C 1018.8 hPa Calm     66 % 0 mm
17:36 16.6 °C 10.2 °C 1018.8 hPa Calm     66 % 0 mm
17:41 16.5 °C 10.1 °C 1019.2 hPa Calm     66 % 0 mm
17:46 16.4 °C 10.2 °C 1019.2 hPa Calm     67 % 0 mm
17:51 16.3 °C 10.1 °C 1019.2 hPa Calm     67 % 0 mm
17:56 16.1 °C 10 °C 1019.2 hPa Calm     67 % 0 mm
18:01 15.8 °C 10.2 °C 1019.2 hPa Calm     69 % 0 mm
18:06 15.4 °C 10.2 °C 1019.5 hPa Calm     71 % 0 mm
18:11 15.2 °C 10 °C 1019.5 hPa Calm     71 % 0 mm
18:17 15 °C 10 °C 1019.5 hPa Calm     72 % 0 mm
18:22 14.7 °C 9.9 °C 1019.5 hPa Calm     73 % 0 mm
18:27 14.4 °C 9.8 °C 1019.5 hPa Calm     74 % 0 mm
18:32 14.2 °C 9.8 °C 1019.5 hPa Calm     75 % 0 mm
18:37 13.9 °C 9.8 °C 1019.5 hPa Calm     76 % 0 mm
18:42 13.7 °C 9.5 °C 1019.5 hPa Calm     76 % 0 mm
18:47 13.4 °C 9.4 °C 1019.5 hPa Calm     77 % 0 mm
18:52 13.2 °C 9.4 °C 1019.9 hPa Calm     78 % 0 mm
18:57 13.2 °C 9.6 °C 1019.9 hPa Calm     79 % 0 mm
19:02 12.8 °C 9.4 °C 1019.9 hPa Calm     80 % 0 mm
19:07 12.4 °C 9.2 °C 1019.9 hPa Calm     81 % 0 mm
19:12 12.2 °C 9.4 °C 1019.9 hPa Calm     83 % 0 mm
19:17 12.4 °C 9.6 °C 1019.9 hPa Calm     83 % 0 mm
19:22 12.6 °C 9.6 °C 1019.9 hPa Calm     82 % 0 mm
19:27 12.7 °C 9.5 °C 1019.9 hPa Calm     81 % 0 mm
19:32 12.7 °C 9.6 °C 1019.9 hPa Calm     81 % 0 mm
19:37 12.7 °C 9.5 °C 1020.2 hPa Calm     81 % 0 mm
19:42 12.6 °C 9.4 °C 1020.2 hPa Calm     81 % 0 mm
19:47 12.4 °C 9.4 °C 1020.2 hPa Calm     82 % 0 mm
19:52 12.2 °C 9.2 °C 1020.2 hPa Calm     82 % 0 mm
19:57 12.1 °C 9.3 °C 1020.2 hPa Calm     83 % 0 mm
20:02 12.1 °C 9.4 °C 1020.5 hPa Calm     84 % 0 mm
20:07 12.1 °C 9.4 °C 1020.5 hPa Calm     84 % 0 mm
20:12 12.1 °C 9.4 °C 1020.5 hPa Calm     84 % 0 mm
20:17 12.1 °C 9.7 °C 1020.5 hPa Calm     85 % 0 mm
20:22 12.1 °C 9.7 °C 1020.5 hPa Calm     85 % 0 mm
20:27 12.1 °C 9.7 °C 1020.5 hPa Calm     85 % 0 mm
20:32 12.1 °C 9.7 °C 1020.9 hPa Calm     85 % 0 mm
20:37 12.1 °C 9.4 °C 1020.9 hPa Calm     84 % 0 mm
20:42 11.9 °C 9.5 °C 1020.9 hPa Calm     85 % 0 mm
20:47 11.8 °C 9.3 °C 1020.9 hPa Calm     85 % 0 mm
20:52 11.6 °C 9.2 °C 1020.9 hPa Calm     85 % 0 mm
20:57 11.5 °C 9.2 °C 1020.9 hPa Calm     86 % 0 mm
21:02 11.3 °C 9.1 °C 1021.2 hPa Calm     86 % 0 mm
21:07 11.1 °C 8.8 °C 1021.2 hPa Calm     86 % 0 mm
21:12 10.9 °C 8.9 °C 1021.2 hPa Calm     87 % 0 mm
21:17 10.8 °C 8.7 °C 1021.2 hPa Calm     87 % 0 mm
21:22 10.7 °C 8.8 °C 1021.2 hPa Calm     88 % 0 mm
21:27 10.7 °C 8.8 °C 1021.2 hPa Calm     88 % 0 mm
21:32 10.7 °C 8.8 °C 1021.2 hPa Calm     88 % 0 mm
21:37 10.7 °C 8.9 °C 1021.2 hPa Calm     89 % 0 mm
21:42 10.7 °C 9 °C 1021.2 hPa Calm     89 % 0 mm
21:47 10.8 °C 9.1 °C 1021.2 hPa Calm     89 % 0 mm
21:52 10.8 °C 8.9 °C 1021.6 hPa Calm     88 % 0 mm
21:57 10.9 °C 9 °C 1021.6 hPa Calm     88 % 0 mm
22:02 10.9 °C 8.9 °C 1021.6 hPa Calm     87 % 0 mm
22:07 10.8 °C 8.8 °C 1021.6 hPa Calm     87 % 0 mm
22:12 10.7 °C 8.7 °C 1021.6 hPa Calm     87 % 0 mm
22:17 10.6 °C 8.5 °C 1021.6 hPa Calm     87 % 0 mm
22:22 10.4 °C 8.6 °C 1021.6 hPa Calm     88 % 0 mm
22:32 10.2 °C 8.3 °C 1021.2 hPa Calm     88 % 0 mm
22:37 10.1 °C 8.2 °C 1021.6 hPa Calm     88 % 0 mm
22:42 10 °C 8.1 °C 1021.2 hPa Calm     88 % 0 mm
22:47 9.9 °C 8.2 °C 1021.2 hPa Calm     89 % 0 mm
22:52 9.9 °C 8.2 °C 1021.2 hPa Calm     89 % 0 mm
22:58 9.8 °C 7.9 °C 1021.6 hPa Calm     88 % 0 mm
23:03 9.7 °C 8 °C 1021.6 hPa Calm     89 % 0 mm
23:07 9.6 °C 7.8 °C 1021.6 hPa Calm     89 % 0 mm
23:12 9.3 °C 7.4 °C 1021.2 hPa Calm     88 % 0 mm
23:17 9.2 °C 7.4 °C 1021.2 hPa Calm     89 % 0 mm
23:22 9.1 °C 7.6 °C 1021.6 hPa Calm     90 % 0 mm
23:27 9 °C 7.4 °C 1021.6 hPa Calm     90 % 0 mm
23:33 8.8 °C 7.1 °C 1021.6 hPa Calm     89 % 0 mm
23:38 8.7 °C 7.1 °C 1021.6 hPa Calm     90 % 0 mm
23:43 8.6 °C 7.1 °C 1021.6 hPa Calm     90 % 0 mm
23:48 8.5 °C 6.9 °C 1021.6 hPa Calm     90 % 0 mm
23:53 8.3 °C 6.8 °C 1021.6 hPa Calm     90 % 0 mm
23:58 8.1 °C 6.6 °C 1021.6 hPa Calm     90 % 0 mm
Park Place, Exeter, Tulare County, California, USA
Compliments of Weather Underground - 2.75 mb